createdAt,value
2022-11-30T00:00:55.863Z,3.58
2022-11-30T00:03:22.461Z,3.05
2022-11-30T00:05:49.193Z,2.97
2022-11-30T00:08:15.724Z,3.10
2022-11-30T00:10:42.535Z,2.95
2022-11-30T00:13:09.333Z,3.10
2022-11-30T00:15:36.249Z,3.67
2022-11-30T00:18:02.657Z,3.15
2022-11-30T00:20:30.058Z,2.53
2022-11-30T00:22:56.933Z,3.45
2022-11-30T00:25:24.036Z,2.78
2022-11-30T00:27:50.592Z,3.13
2022-11-30T00:30:16.994Z,3.03
2022-11-30T00:32:43.286Z,3.22
2022-11-30T00:35:09.571Z,2.70
2022-11-30T00:37:36.035Z,2.67
2022-11-30T00:40:02.344Z,3.00
2022-11-30T00:42:28.639Z,2.90
2022-11-30T00:44:54.938Z,2.63
2022-11-30T00:47:21.206Z,2.65
2022-11-30T00:49:47.489Z,3.10
2022-11-30T00:52:13.854Z,2.50
2022-11-30T00:54:40.149Z,3.25
2022-11-30T00:57:06.454Z,2.78
2022-11-30T00:59:32.750Z,3.00
2022-11-30T01:01:59.062Z,2.53
2022-11-30T01:04:25.342Z,2.80
2022-11-30T01:06:51.619Z,3.63
2022-11-30T01:09:18.013Z,2.78
2022-11-30T01:11:44.316Z,2.25
2022-11-30T01:14:10.813Z,2.67
2022-11-30T01:16:37.211Z,2.67
2022-11-30T01:19:04.007Z,2.80
2022-11-30T01:21:30.468Z,3.00
2022-11-30T01:23:56.828Z,2.97
2022-11-30T01:26:23.616Z,3.05
2022-11-30T01:28:53.626Z,2.80
2022-11-30T01:31:20.678Z,3.22
2022-11-30T01:33:54.759Z,2.38
2022-11-30T01:36:22.668Z,2.78
2022-11-30T01:38:50.468Z,2.60
2022-11-30T01:41:21.828Z,2.50
2022-11-30T01:43:49.987Z,2.35
2022-11-30T01:46:19.102Z,2.40
2022-11-30T01:48:45.620Z,2.28
2022-11-30T01:51:11.973Z,2.30
2022-11-30T01:53:38.406Z,2.58
2022-11-30T01:56:04.903Z,2.75
2022-11-30T01:58:32.316Z,2.35
2022-11-30T02:00:59.654Z,2.85
2022-11-30T02:03:32.489Z,3.42
2022-11-30T02:05:59.336Z,2.47
2022-11-30T02:08:26.555Z,2.45
2022-11-30T02:10:54.184Z,2.60
2022-11-30T02:13:23.246Z,3.05
2022-11-30T02:16:08.314Z,2.83
2022-11-30T02:18:55.084Z,3.47
2022-11-30T02:21:24.242Z,3.97
2022-11-30T02:24:09.159Z,2.85
2022-11-30T02:26:55.871Z,3.72
2022-11-30T02:29:24.668Z,3.65
2022-11-30T02:31:53.693Z,3.20
2022-11-30T02:34:21.893Z,3.00
2022-11-30T02:36:48.379Z,3.35
2022-11-30T02:39:14.746Z,2.90
2022-11-30T02:41:41.107Z,2.63
2022-11-30T02:44:08.974Z,2.55
2022-11-30T02:46:41.229Z,2.33
2022-11-30T02:49:26.428Z,2.33
2022-11-30T02:51:53.741Z,2.47
2022-11-30T02:54:20.032Z,2.70
2022-11-30T02:56:46.430Z,2.00
2022-11-30T02:59:12.744Z,2.30
2022-11-30T03:01:39.826Z,2.17
2022-11-30T03:04:06.230Z,2.15
2022-11-30T03:06:32.514Z,2.00
2022-11-30T03:08:58.811Z,2.25
2022-11-30T03:11:25.783Z,2.20
2022-11-30T03:13:52.068Z,2.10
2022-11-30T03:16:18.466Z,2.10
2022-11-30T03:18:44.839Z,2.20
2022-11-30T03:21:12.284Z,2.25
2022-11-30T03:23:38.710Z,2.35
2022-11-30T03:26:05.719Z,2.47
2022-11-30T03:28:32.102Z,2.30
2022-11-30T03:30:58.453Z,2.03
2022-11-30T03:33:24.972Z,2.33
2022-11-30T03:36:00.458Z,2.20
2022-11-30T03:38:26.854Z,2.17
2022-11-30T03:40:59.298Z,2.22
2022-11-30T03:43:25.582Z,2.25
2022-11-30T03:45:51.870Z,2.58
2022-11-30T03:48:18.169Z,2.58
2022-11-30T03:50:49.646Z,2.33
2022-11-30T03:53:19.746Z,2.47
2022-11-30T03:55:46.267Z,2.47
2022-11-30T03:58:12.822Z,2.35
2022-11-30T04:00:39.374Z,2.30
2022-11-30T04:03:05.805Z,2.28
2022-11-30T04:05:32.149Z,2.55
2022-11-30T04:07:58.525Z,2.60
2022-11-30T04:10:24.906Z,2.20
2022-11-30T04:12:51.244Z,2.10
2022-11-30T04:15:17.631Z,2.15
2022-11-30T04:17:43.935Z,2.30
2022-11-30T04:20:10.899Z,2.25
2022-11-30T04:22:37.223Z,2.15
2022-11-30T04:25:03.602Z,2.60
2022-11-30T04:27:29.978Z,2.50
2022-11-30T04:29:56.264Z,2.33
2022-11-30T04:32:22.552Z,2.13
2022-11-30T04:34:49.243Z,2.22
2022-11-30T04:37:15.667Z,2.60
2022-11-30T04:39:42.064Z,2.35
2022-11-30T04:42:08.328Z,2.87
2022-11-30T04:44:34.630Z,2.53
2022-11-30T04:47:01.021Z,2.47
2022-11-30T04:49:27.330Z,2.63
2022-11-30T04:51:53.699Z,3.63
2022-11-30T04:54:19.994Z,3.42
2022-11-30T04:56:46.290Z,2.85
2022-11-30T04:59:12.582Z,3.00
2022-11-30T05:01:38.937Z,3.28
2022-11-30T05:04:05.289Z,3.17
2022-11-30T05:06:31.664Z,3.25
2022-11-30T05:08:58.054Z,2.60
2022-11-30T05:11:24.330Z,2.70
2022-11-30T05:13:50.649Z,3.03
2022-11-30T05:16:17.137Z,2.80
2022-11-30T05:18:43.479Z,3.20
2022-11-30T05:21:09.928Z,3.28
2022-11-30T05:23:36.239Z,3.38
2022-11-30T05:26:02.879Z,3.15
2022-11-30T05:28:29.265Z,2.85
2022-11-30T05:30:55.595Z,2.97
2022-11-30T05:33:21.889Z,3.63
2022-11-30T05:35:48.277Z,3.97
2022-11-30T05:38:14.666Z,4.13
2022-11-30T05:40:40.972Z,4.13
2022-11-30T05:43:08.211Z,4.70
2022-11-30T05:45:34.497Z,4.90
2022-11-30T05:48:00.871Z,5.03
2022-11-30T05:50:27.256Z,4.88
2022-11-30T05:52:56.197Z,4.32
2022-11-30T05:55:23.313Z,4.80
2022-11-30T05:57:49.672Z,4.47
2022-11-30T06:00:16.283Z,5.07
2022-11-30T06:02:42.646Z,4.22
2022-11-30T06:05:09.111Z,4.68
2022-11-30T06:07:35.491Z,4.13
2022-11-30T06:10:01.827Z,3.95
2022-11-30T06:12:28.138Z,4.28
2022-11-30T06:14:54.598Z,3.88
2022-11-30T06:17:20.946Z,4.10
2022-11-30T06:19:47.252Z,3.70
2022-11-30T06:22:13.635Z,3.88
2022-11-30T06:24:40.004Z,3.30
2022-11-30T06:27:06.570Z,3.60
2022-11-30T06:29:32.907Z,3.90
2022-11-30T06:31:59.352Z,4.25
2022-11-30T06:34:25.693Z,3.63
2022-11-30T06:36:51.979Z,3.35
2022-11-30T06:39:31.474Z,4.25
2022-11-30T06:42:05.932Z,3.60
2022-11-30T06:44:32.278Z,4.25
2022-11-30T06:46:58.591Z,3.78
2022-11-30T06:49:24.951Z,5.15
2022-11-30T06:51:51.232Z,4.85
2022-11-30T06:54:17.575Z,4.10
2022-11-30T06:56:43.895Z,4.70
2022-11-30T06:59:10.214Z,4.68
2022-11-30T07:01:36.548Z,5.00
2022-11-30T07:04:02.918Z,4.60
2022-11-30T07:06:29.420Z,5.10
2022-11-30T07:08:55.756Z,5.50
2022-11-30T07:11:22.050Z,5.05
2022-11-30T07:13:48.330Z,6.13
2022-11-30T07:16:14.716Z,5.03
2022-11-30T07:18:41.088Z,5.78
2022-11-30T07:21:07.405Z,5.50
2022-11-30T07:23:56.250Z,6.05
2022-11-30T07:26:23.340Z,6.25
2022-11-30T07:28:54.356Z,5.80
2022-11-30T07:31:22.153Z,6.32
2022-11-30T07:33:49.302Z,6.40
2022-11-30T07:36:16.937Z,6.43
2022-11-30T07:38:43.344Z,6.00
2022-11-30T07:41:09.746Z,5.65
2022-11-30T07:43:36.052Z,4.55
2022-11-30T07:46:02.520Z,5.00
2022-11-30T07:48:29.250Z,4.90
2022-11-30T07:51:01.342Z,4.78
2022-11-30T07:53:28.286Z,4.47
2022-11-30T07:55:56.984Z,4.22
2022-11-30T07:58:23.486Z,4.60
2022-11-30T08:00:49.888Z,4.57
2022-11-30T08:03:16.302Z,4.35
2022-11-30T08:05:42.660Z,4.50
2022-11-30T08:08:08.943Z,4.88
2022-11-30T08:10:35.351Z,5.22
2022-11-30T08:13:01.646Z,4.30
2022-11-30T08:15:32.575Z,5.30
2022-11-30T08:18:00.195Z,5.47
2022-11-30T08:20:26.522Z,5.50
2022-11-30T08:22:52.886Z,5.78
2022-11-30T08:25:19.231Z,5.03
2022-11-30T08:27:45.593Z,4.38
2022-11-30T08:30:11.981Z,5.22
2022-11-30T08:32:38.304Z,5.88
2022-11-30T08:35:04.859Z,5.80
2022-11-30T08:37:31.180Z,5.82
2022-11-30T08:39:57.738Z,5.47
2022-11-30T08:42:24.026Z,5.93
2022-11-30T08:44:50.313Z,5.47
2022-11-30T08:47:16.674Z,4.90
2022-11-30T08:49:42.980Z,6.68
2022-11-30T08:52:18.245Z,5.72
2022-11-30T08:57:12.772Z,4.90
2022-11-30T08:59:39.066Z,4.45
2022-11-30T09:02:05.618Z,5.10
2022-11-30T09:04:31.949Z,5.85
2022-11-30T09:06:59.464Z,4.97
2022-11-30T09:09:26.178Z,5.50
2022-11-30T09:11:52.518Z,5.35
2022-11-30T09:14:18.806Z,7.43
2022-11-30T09:16:45.133Z,8.07
2022-11-30T09:19:11.673Z,5.45
2022-11-30T09:21:38.040Z,6.82
2022-11-30T09:24:04.526Z,7.05
2022-11-30T09:26:30.934Z,6.50
2022-11-30T09:28:57.229Z,7.82
2022-11-30T09:31:24.406Z,6.63
2022-11-30T09:33:51.126Z,7.47
2022-11-30T09:36:19.208Z,7.82
2022-11-30T09:38:46.042Z,9.10
2022-11-30T09:41:30.771Z,9.07
2022-11-30T09:44:20.135Z,7.00
2022-11-30T09:46:50.456Z,8.35
2022-11-30T09:49:29.891Z,8.95
2022-11-30T09:51:56.811Z,7.93
2022-11-30T09:54:35.605Z,7.28
2022-11-30T09:57:20.749Z,8.48
2022-11-30T10:00:16.323Z,8.48
2022-11-30T10:02:43.002Z,8.23
2022-11-30T10:05:38.572Z,8.75
2022-11-30T10:08:23.582Z,8.07
2022-11-30T10:10:52.737Z,9.10
2022-11-30T10:13:23.244Z,6.85
2022-11-30T10:15:49.758Z,7.75
2022-11-30T10:18:22.296Z,8.02
2022-11-30T10:20:51.387Z,8.48
2022-11-30T10:23:18.397Z,8.02
2022-11-30T10:25:58.077Z,8.23
2022-11-30T10:28:46.945Z,7.82
2022-11-30T10:31:14.753Z,9.35
2022-11-30T10:34:03.471Z,8.85
2022-11-30T10:36:34.725Z,8.68
2022-11-30T10:39:03.587Z,9.93
2022-11-30T10:41:32.266Z,8.43
2022-11-30T10:44:22.918Z,9.55
2022-11-30T10:46:54.993Z,9.00
2022-11-30T10:49:23.450Z,8.90
2022-11-30T10:51:52.689Z,9.02
2022-11-30T10:54:20.641Z,9.05
2022-11-30T10:56:47.274Z,8.93
2022-11-30T10:59:21.838Z,8.57
2022-11-30T11:01:48.186Z,10.23
2022-11-30T11:04:19.158Z,9.95
2022-11-30T11:06:53.691Z,9.20
2022-11-30T11:09:29.142Z,9.38
2022-11-30T11:11:57.298Z,8.10
2022-11-30T11:14:24.267Z,9.68
2022-11-30T11:16:58.644Z,8.38
2022-11-30T11:19:33.502Z,9.35
2022-11-30T11:22:04.366Z,8.53
2022-11-30T11:24:30.926Z,10.45
2022-11-30T11:26:57.416Z,10.52
2022-11-30T11:29:31.416Z,9.73
2022-11-30T11:32:16.716Z,9.77
2022-11-30T11:34:47.960Z,8.93
2022-11-30T11:37:20.171Z,9.80
2022-11-30T11:39:57.126Z,10.40
2022-11-30T11:42:23.884Z,8.77
2022-11-30T11:44:52.199Z,7.75
2022-11-30T11:47:25.302Z,6.47
2022-11-30T11:49:52.769Z,7.53
2022-11-30T11:52:19.182Z,7.75
2022-11-30T11:54:48.688Z,7.47
2022-11-30T11:57:16.426Z,9.32
2022-11-30T11:59:42.801Z,9.90
2022-11-30T12:02:12.110Z,8.43
2022-11-30T12:04:57.620Z,7.10
2022-11-30T12:07:27.468Z,9.25
2022-11-30T12:10:02.704Z,7.55
2022-11-30T12:12:29.142Z,8.63
2022-11-30T12:14:56.105Z,7.03
2022-11-30T12:17:45.795Z,7.50
2022-11-30T12:20:21.070Z,7.88
2022-11-30T12:22:53.309Z,8.93
2022-11-30T12:25:27.370Z,9.13
2022-11-30T12:28:19.710Z,5.70
2022-11-30T12:30:51.827Z,8.45
2022-11-30T12:33:20.965Z,9.13
2022-11-30T12:35:47.243Z,9.25
2022-11-30T12:38:19.826Z,8.57
2022-11-30T12:41:00.998Z,8.90
2022-11-30T12:43:46.175Z,8.50
2022-11-30T12:46:15.779Z,9.40
2022-11-30T12:48:48.037Z,9.82
2022-11-30T12:51:22.839Z,9.77
2022-11-30T12:54:01.679Z,8.98
2022-11-30T12:56:40.238Z,9.82
2022-11-30T12:59:19.926Z,9.98
2022-11-30T13:01:49.707Z,9.30
2022-11-30T13:04:27.414Z,9.77
2022-11-30T13:06:57.592Z,9.85
2022-11-30T13:09:30.376Z,9.75
2022-11-30T13:11:59.180Z,10.65
2022-11-30T13:14:27.450Z,9.75
2022-11-30T13:16:59.818Z,10.88
2022-11-30T13:19:42.828Z,10.88
2022-11-30T13:22:12.461Z,12.80
2022-11-30T13:24:45.298Z,12.07
2022-11-30T13:27:15.611Z,12.32
2022-11-30T13:29:41.983Z,12.35
2022-11-30T13:32:27.499Z,13.98
2022-11-30T13:35:16.744Z,13.38
2022-11-30T13:42:35.490Z,14.18
2022-11-30T13:45:14.144Z,13.82
2022-11-30T13:47:48.218Z,14.40
2022-11-30T13:50:24.263Z,15.30
2022-11-30T13:53:03.251Z,14.98
2022-11-30T13:55:49.903Z,14.90
2022-11-30T13:58:17.552Z,12.95
2022-11-30T14:00:47.987Z,11.82
2022-11-30T14:03:20.367Z,10.38
2022-11-30T14:05:53.372Z,9.63
2022-11-30T14:08:22.688Z,8.93
2022-11-30T14:10:48.962Z,7.00
2022-11-30T14:13:22.764Z,9.00
2022-11-30T14:16:00.651Z,9.80
2022-11-30T14:18:30.176Z,9.13
2022-11-30T14:21:15.186Z,7.88
2022-11-30T14:24:01.790Z,10.18
2022-11-30T14:26:36.971Z,10.60
2022-11-30T14:29:16.702Z,10.77
2022-11-30T14:31:46.133Z,10.10
2022-11-30T14:34:23.604Z,9.60
2022-11-30T14:36:55.335Z,11.10
2022-11-30T14:39:26.375Z,10.63
2022-11-30T14:41:53.085Z,8.52
2022-11-30T14:44:19.394Z,8.43
2022-11-30T14:46:45.734Z,9.95
2022-11-30T14:49:14.447Z,10.98
2022-11-30T14:51:45.524Z,8.43
2022-11-30T14:54:17.016Z,11.52
2022-11-30T14:56:48.227Z,8.75
2022-11-30T14:59:15.610Z,7.85
2022-11-30T15:01:42.188Z,8.00
2022-11-30T15:04:12.923Z,9.60
2022-11-30T15:06:39.649Z,9.25
2022-11-30T15:09:12.998Z,9.73
2022-11-30T15:11:43.235Z,13.07
2022-11-30T15:14:10.396Z,12.23
2022-11-30T15:16:37.307Z,13.27
2022-11-30T15:19:20.064Z,13.95
2022-11-30T15:21:46.845Z,13.02
2022-11-30T15:24:13.307Z,13.30
2022-11-30T15:26:52.051Z,13.63
2022-11-30T15:29:18.459Z,13.10
2022-11-30T15:31:45.688Z,12.85
2022-11-30T15:34:26.189Z,11.38
2022-11-30T15:36:56.111Z,11.52
2022-11-30T15:39:23.771Z,12.65
2022-11-30T15:41:57.671Z,13.40
2022-11-30T15:44:24.103Z,13.88
2022-11-30T15:46:58.014Z,12.80
2022-11-30T15:49:26.226Z,13.73
2022-11-30T15:51:59.826Z,14.48
2022-11-30T15:54:45.742Z,13.93
2022-11-30T15:57:12.042Z,14.95
2022-11-30T15:59:38.478Z,13.10
2022-11-30T16:02:08.311Z,11.18
2022-11-30T16:04:57.739Z,12.70
2022-11-30T16:07:30.991Z,13.30
2022-11-30T16:10:23.583Z,14.65
2022-11-30T16:12:50.969Z,14.88
2022-11-30T16:15:25.000Z,13.38
2022-11-30T16:17:52.243Z,13.88
2022-11-30T16:20:20.812Z,14.45
2022-11-30T16:22:47.848Z,14.20
2022-11-30T16:25:21.562Z,16.55
2022-11-30T16:27:48.294Z,16.35
2022-11-30T16:30:16.026Z,15.27
2022-11-30T16:32:42.434Z,15.38
2022-11-30T16:35:16.733Z,13.02
2022-11-30T16:37:43.030Z,13.80
2022-11-30T16:40:09.549Z,15.38
2022-11-30T16:42:35.867Z,16.55
2022-11-30T16:45:02.239Z,15.68
2022-11-30T16:47:28.587Z,16.23
2022-11-30T16:49:54.924Z,16.15
2022-11-30T16:52:21.247Z,16.92
2022-11-30T16:54:47.531Z,16.70
2022-11-30T16:57:13.935Z,17.27
2022-11-30T16:59:40.221Z,16.75
2022-11-30T17:02:15.500Z,15.65
2022-11-30T17:04:41.850Z,17.70
2022-11-30T17:07:08.287Z,16.67
2022-11-30T17:09:34.680Z,16.92
2022-11-30T17:12:01.470Z,17.00
2022-11-30T17:14:28.308Z,16.63
2022-11-30T17:16:54.719Z,17.23
2022-11-30T17:19:22.021Z,16.08
2022-11-30T17:21:50.747Z,17.20
2022-11-30T17:24:17.110Z,15.45
2022-11-30T17:26:43.622Z,14.27
2022-11-30T17:29:09.933Z,15.68
2022-11-30T17:31:36.922Z,14.98
2022-11-30T17:34:03.603Z,15.85
2022-11-30T17:36:29.971Z,16.48
2022-11-30T17:38:56.694Z,14.48
2022-11-30T17:41:23.834Z,15.77
2022-11-30T17:43:50.302Z,15.05
2022-11-30T17:46:17.707Z,14.93
2022-11-30T17:48:44.183Z,14.32
2022-11-30T17:51:10.724Z,15.27
2022-11-30T17:53:37.602Z,14.68
2022-11-30T17:56:04.928Z,15.38
2022-11-30T17:58:35.286Z,15.82
2022-11-30T18:01:03.498Z,13.15
2022-11-30T18:03:29.977Z,15.18
2022-11-30T18:05:59.804Z,9.40
2022-11-30T18:08:26.092Z,15.05
2022-11-30T18:10:52.374Z,15.55
2022-11-30T18:13:18.648Z,14.32
2022-11-30T18:15:44.950Z,14.35
2022-11-30T18:18:11.255Z,15.00
2022-11-30T18:20:37.592Z,14.38
2022-11-30T18:23:03.927Z,14.98
2022-11-30T18:25:30.242Z,14.95
2022-11-30T18:27:56.640Z,14.32
2022-11-30T18:30:23.041Z,15.15
2022-11-30T18:32:49.406Z,15.35
2022-11-30T18:35:15.805Z,13.25
2022-11-30T18:37:42.115Z,14.75
2022-11-30T18:40:08.681Z,13.55
2022-11-30T18:42:35.162Z,14.25
2022-11-30T18:45:01.530Z,15.32
2022-11-30T18:47:27.832Z,13.73
2022-11-30T18:49:54.363Z,14.85
2022-11-30T18:52:20.687Z,15.10
2022-11-30T18:54:47.357Z,14.63
2022-11-30T18:57:13.886Z,14.55
2022-11-30T18:59:40.285Z,14.70
2022-11-30T19:02:09.109Z,13.88
2022-11-30T19:04:35.482Z,14.52
2022-11-30T19:07:01.765Z,15.02
2022-11-30T19:09:28.216Z,14.90
2022-11-30T19:11:54.522Z,15.45
2022-11-30T19:14:20.829Z,14.90
2022-11-30T19:16:47.282Z,13.63
2022-11-30T19:19:14.140Z,14.25
2022-11-30T19:21:42.062Z,15.35
2022-11-30T19:24:09.093Z,15.75
2022-11-30T19:26:36.168Z,15.48
2022-11-30T19:29:02.490Z,16.70
2022-11-30T19:31:28.884Z,15.52
2022-11-30T19:33:55.632Z,15.57
2022-11-30T19:36:26.306Z,16.05
2022-11-30T19:38:52.906Z,15.57
2022-11-30T19:41:20.141Z,15.65
2022-11-30T19:43:54.778Z,16.15
2022-11-30T19:46:23.858Z,12.52
2022-11-30T19:48:54.855Z,13.43
2022-11-30T19:51:21.152Z,14.63
2022-11-30T19:53:47.470Z,14.88
2022-11-30T19:56:15.460Z,13.88
2022-11-30T19:58:43.777Z,15.45
2022-11-30T20:01:13.889Z,14.38
2022-11-30T20:03:40.276Z,15.07
2022-11-30T20:06:06.806Z,15.88
2022-11-30T20:08:33.135Z,15.85
2022-11-30T20:10:59.476Z,14.27
2022-11-30T20:13:25.798Z,13.85
2022-11-30T20:15:52.149Z,14.63
2022-11-30T20:18:18.500Z,14.70
2022-11-30T20:20:44.819Z,16.02
2022-11-30T20:23:11.114Z,14.20
2022-11-30T20:25:37.438Z,15.45
2022-11-30T20:28:08.216Z,16.05
2022-11-30T20:30:37.517Z,15.75
2022-11-30T20:33:03.866Z,14.38
2022-11-30T20:35:30.201Z,16.05
2022-11-30T20:37:56.491Z,11.45
2022-11-30T20:40:23.759Z,14.23
2022-11-30T20:42:51.028Z,14.25
2022-11-30T20:45:17.368Z,14.52
2022-11-30T20:47:43.680Z,15.52
2022-11-30T20:50:10.378Z,14.73
2022-11-30T20:52:36.775Z,13.35
2022-11-30T20:55:03.083Z,14.65
2022-11-30T20:57:29.435Z,14.70
2022-11-30T20:59:55.827Z,14.75
2022-11-30T21:02:22.207Z,14.63
2022-11-30T21:04:48.789Z,13.32
2022-11-30T21:07:15.426Z,14.63
2022-11-30T21:09:41.730Z,14.68
2022-11-30T21:12:08.159Z,14.20
2022-11-30T21:14:34.433Z,14.15
2022-11-30T21:17:00.715Z,14.43
2022-11-30T21:19:27.135Z,14.40
2022-11-30T21:21:55.415Z,15.60
2022-11-30T21:24:21.747Z,15.38
2022-11-30T21:26:48.081Z,14.32
2022-11-30T21:29:15.875Z,15.00
2022-11-30T21:31:42.693Z,10.73
2022-11-30T21:34:09.365Z,14.45
2022-11-30T21:36:35.759Z,14.23
2022-11-30T21:39:05.940Z,8.05
2022-11-30T21:41:33.191Z,12.52
2022-11-30T21:43:59.471Z,11.45
2022-11-30T21:46:25.922Z,13.68
2022-11-30T21:48:52.346Z,13.75
2022-11-30T21:51:22.433Z,12.55
2022-11-30T21:53:50.535Z,12.93
2022-11-30T21:56:19.017Z,8.98
2022-11-30T21:58:46.371Z,11.85
2022-11-30T22:01:13.988Z,13.07
2022-11-30T22:03:40.444Z,12.93
2022-11-30T22:06:08.327Z,13.07
2022-11-30T22:08:35.275Z,12.48
2022-11-30T22:11:06.048Z,13.05
2022-11-30T22:13:32.774Z,12.35
2022-11-30T22:16:00.160Z,13.00
2022-11-30T22:18:26.652Z,8.70
2022-11-30T22:20:52.970Z,8.15
2022-11-30T22:23:19.274Z,12.35
2022-11-30T22:25:48.100Z,14.35
2022-11-30T22:28:14.450Z,13.65
2022-11-30T22:30:47.106Z,13.70
2022-11-30T22:33:13.437Z,11.52
2022-11-30T22:35:39.890Z,14.27
2022-11-30T22:38:06.403Z,8.85
2022-11-30T22:40:32.712Z,14.25
2022-11-30T22:42:59.043Z,11.60
2022-11-30T22:45:25.851Z,12.40
2022-11-30T22:47:52.128Z,13.40
2022-11-30T22:50:18.546Z,7.57
2022-11-30T22:53:02.342Z,14.05
2022-11-30T22:55:29.937Z,15.88
2022-11-30T22:57:56.503Z,16.15
2022-11-30T23:00:22.892Z,16.27
2022-11-30T23:02:49.302Z,8.50
2022-11-30T23:05:15.650Z,13.52
2022-11-30T23:07:43.529Z,13.43
2022-11-30T23:10:09.932Z,13.32
2022-11-30T23:12:58.498Z,13.63
2022-11-30T23:15:23.278Z,16.13
2022-11-30T23:17:52.085Z,16.58
2022-11-30T23:20:18.385Z,16.33
2022-11-30T23:22:44.703Z,12.02
2022-11-30T23:25:11.007Z,17.63
2022-11-30T23:27:37.378Z,16.83
2022-11-30T23:30:04.744Z,15.52
2022-11-30T23:32:31.058Z,10.32
2022-11-30T23:34:57.388Z,14.45
2022-11-30T23:37:23.801Z,13.73
2022-11-30T23:39:50.352Z,15.68
2022-11-30T23:42:16.839Z,15.05
2022-11-30T23:44:43.187Z,15.75
2022-11-30T23:47:13.032Z,15.68
2022-11-30T23:49:41.754Z,14.00
2022-11-30T23:52:08.055Z,15.52
2022-11-30T23:54:34.383Z,14.75
2022-11-30T23:57:00.688Z,14.48
2022-11-30T23:59:27.024Z,13.07
